createdAt,value
2022-11-20T00:01:37.897Z,3.75
2022-11-20T00:04:41.399Z,6.05
2022-11-20T00:07:45.466Z,4.88
2022-11-20T00:10:49.335Z,5.40
2022-11-20T00:13:55.514Z,5.88
2022-11-20T00:16:59.430Z,5.68
2022-11-20T00:20:03.280Z,6.60
2022-11-20T00:23:07.537Z,6.18
2022-11-20T00:26:16.938Z,6.45
2022-11-20T00:29:20.961Z,5.38
2022-11-20T00:32:25.635Z,7.35
2022-11-20T00:35:28.796Z,6.25
2022-11-20T00:38:34.045Z,8.38
2022-11-20T00:41:38.049Z,9.07
2022-11-20T00:44:41.600Z,8.40
2022-11-20T00:47:45.358Z,8.82
2022-11-20T00:50:48.466Z,8.73
2022-11-20T00:53:58.422Z,8.43
2022-11-20T00:57:02.192Z,8.32
2022-11-20T01:00:06.136Z,6.63
2022-11-20T01:03:09.670Z,11.65
2022-11-20T01:06:22.568Z,7.93
2022-11-20T01:09:26.546Z,9.13
2022-11-20T01:12:30.258Z,5.53
2022-11-20T01:15:35.693Z,11.38
2022-11-20T01:18:42.078Z,10.52
2022-11-20T01:21:48.273Z,7.40
2022-11-20T01:24:51.841Z,7.88
2022-11-20T01:27:55.596Z,8.20
2022-11-20T01:30:59.531Z,10.15
2022-11-20T01:34:08.483Z,10.40
2022-11-20T01:37:11.896Z,12.77
2022-11-20T01:40:15.249Z,14.02
2022-11-20T01:43:23.219Z,15.38
2022-11-20T01:49:36.452Z,22.15
2022-11-20T01:52:48.336Z,23.08
2022-11-20T01:55:54.459Z,28.50
2022-11-20T01:59:02.842Z,24.80
2022-11-20T02:02:06.719Z,27.65
2022-11-20T02:05:31.985Z,38.83
2022-11-20T02:08:36.737Z,42.92
2022-11-20T02:11:40.414Z,44.00
2022-11-20T02:14:44.175Z,50.67
2022-11-20T02:17:47.894Z,65.40
2022-11-20T02:21:00.348Z,84.07
2022-11-20T02:24:07.169Z,89.65
2022-11-20T02:27:18.436Z,80.18
2022-11-20T02:30:22.508Z,79.07
2022-11-20T02:33:25.859Z,88.35
2022-11-20T02:36:32.777Z,68.55
2022-11-20T02:39:36.491Z,59.40
2022-11-20T02:42:39.850Z,32.28
2022-11-20T02:45:43.637Z,28.73
2022-11-20T02:48:47.799Z,24.98
2022-11-20T02:51:51.552Z,24.45
2022-11-20T02:54:55.596Z,27.90
2022-11-20T02:57:59.038Z,25.65
2022-11-20T03:01:05.664Z,31.88
2022-11-20T03:04:09.720Z,14.83
2022-11-20T03:07:13.572Z,13.80
2022-11-20T03:10:18.412Z,23.75
2022-11-20T03:13:22.394Z,20.02
2022-11-20T03:16:25.819Z,17.50
2022-11-20T03:19:30.125Z,18.33
2022-11-20T03:22:33.894Z,14.20
2022-11-20T03:25:37.470Z,13.07
2022-11-20T03:28:41.829Z,12.00
2022-11-20T03:31:45.633Z,13.95
2022-11-20T03:34:49.399Z,9.20
2022-11-20T03:37:52.963Z,9.25
2022-11-20T03:41:01.250Z,11.63
2022-11-20T03:44:07.172Z,14.10
2022-11-20T03:47:10.771Z,16.95
2022-11-20T03:50:15.895Z,23.80
2022-11-20T03:53:20.057Z,17.63
2022-11-20T03:56:29.363Z,12.18
2022-11-20T03:59:32.970Z,12.57
2022-11-20T04:02:38.756Z,9.98
2022-11-20T04:05:42.163Z,10.65
2022-11-20T04:08:51.010Z,13.13
2022-11-20T04:11:57.168Z,13.80
2022-11-20T04:15:01.605Z,12.35
2022-11-20T04:18:05.389Z,13.07
2022-11-20T04:21:09.817Z,13.02
2022-11-20T04:24:13.526Z,11.85
2022-11-20T04:27:17.645Z,12.98
2022-11-20T04:30:21.457Z,12.73
2022-11-20T04:33:25.834Z,10.50
2022-11-20T04:36:32.247Z,10.80
2022-11-20T04:39:35.973Z,11.05
2022-11-20T04:42:39.954Z,13.32
2022-11-20T04:45:43.910Z,12.88
2022-11-20T04:48:47.492Z,8.07
2022-11-20T04:51:57.251Z,14.43
2022-11-20T04:55:00.966Z,14.00
2022-11-20T04:58:04.629Z,13.20
2022-11-20T05:01:11.971Z,13.45
2022-11-20T05:04:16.030Z,11.18
2022-11-20T05:07:19.472Z,12.68
2022-11-20T05:10:23.234Z,14.38
2022-11-20T05:13:26.835Z,13.43
2022-11-20T05:16:30.979Z,15.10
2022-11-20T05:19:34.358Z,11.23
2022-11-20T05:22:41.323Z,10.48
2022-11-20T05:25:52.360Z,9.70
2022-11-20T05:29:00.142Z,10.50
2022-11-20T05:32:08.799Z,9.48
2022-11-20T05:35:12.093Z,10.55
2022-11-20T05:38:16.334Z,9.32
2022-11-20T05:41:21.893Z,7.00
2022-11-20T05:44:24.953Z,8.05
2022-11-20T05:47:32.542Z,7.35
2022-11-20T05:50:36.499Z,7.13
2022-11-20T05:53:43.860Z,6.20
2022-11-20T05:56:51.631Z,8.02
2022-11-20T05:59:55.041Z,7.68
2022-11-20T06:02:58.713Z,7.57
2022-11-20T06:06:03.839Z,8.55
2022-11-20T06:09:07.165Z,6.95
2022-11-20T06:12:10.851Z,7.55
2022-11-20T06:15:14.622Z,8.77
2022-11-20T06:18:18.371Z,7.72
2022-11-20T06:21:24.080Z,8.00
2022-11-20T06:24:27.673Z,8.50
2022-11-20T06:27:31.340Z,8.50
2022-11-20T06:30:35.023Z,7.38
2022-11-20T06:33:38.827Z,5.03
2022-11-20T06:36:42.657Z,5.80
2022-11-20T06:39:46.347Z,5.57
2022-11-20T06:42:49.646Z,5.55
2022-11-20T06:45:58.366Z,3.70
2022-11-20T06:49:03.001Z,4.32
2022-11-20T06:52:06.949Z,4.80
2022-11-20T06:55:10.260Z,5.30
2022-11-20T06:58:17.525Z,5.05
2022-11-20T07:01:20.633Z,4.82
2022-11-20T07:04:23.687Z,5.50
2022-11-20T07:07:26.995Z,6.30
2022-11-20T07:10:30.912Z,4.93
2022-11-20T07:13:35.113Z,6.72
2022-11-20T07:16:38.809Z,7.93
2022-11-20T07:19:42.270Z,8.38
2022-11-20T07:22:45.531Z,6.32
2022-11-20T07:25:49.054Z,5.75
2022-11-20T07:28:52.292Z,5.70
2022-11-20T07:31:57.508Z,5.55
2022-11-20T07:35:00.656Z,5.72
2022-11-20T07:38:04.606Z,6.30
2022-11-20T07:41:08.040Z,6.85
2022-11-20T07:44:12.147Z,7.00
2022-11-20T07:47:15.424Z,7.00
2022-11-20T07:50:22.001Z,6.70
2022-11-20T07:53:26.090Z,7.38
2022-11-20T07:56:30.193Z,7.13
2022-11-20T07:59:33.389Z,7.65
2022-11-20T08:02:43.456Z,7.50
2022-11-20T08:05:47.275Z,8.07
2022-11-20T08:08:51.077Z,7.63
2022-11-20T08:12:12.581Z,6.95
2022-11-20T08:15:15.807Z,6.07
2022-11-20T08:18:34.885Z,6.43
2022-11-20T08:21:39.377Z,6.85
2022-11-20T08:24:42.925Z,7.90
2022-11-20T08:27:46.678Z,7.60
2022-11-20T08:30:51.832Z,6.65
2022-11-20T08:33:56.199Z,5.82
2022-11-20T08:37:00.653Z,6.25
2022-11-20T08:40:04.617Z,6.68
2022-11-20T08:43:07.971Z,6.20
2022-11-20T08:46:15.010Z,6.95
2022-11-20T08:49:20.293Z,5.65
2022-11-20T08:52:24.718Z,4.85
2022-11-20T08:55:28.576Z,4.93
2022-11-20T08:58:48.816Z,5.28
2022-11-20T09:01:54.840Z,5.60
2022-11-20T09:04:58.966Z,5.57
2022-11-20T09:08:03.030Z,4.15
2022-11-20T09:11:07.567Z,5.30
2022-11-20T09:14:11.289Z,4.53
2022-11-20T09:17:16.829Z,6.32
2022-11-20T09:20:21.009Z,6.03
2022-11-20T09:23:26.004Z,5.25
2022-11-20T09:26:30.670Z,7.90
2022-11-20T09:29:40.467Z,12.02
2022-11-20T09:32:45.698Z,14.25
2022-11-20T09:35:51.867Z,22.90
2022-11-20T09:38:58.385Z,20.98
2022-11-20T09:42:32.570Z,18.17
2022-11-20T09:46:05.785Z,13.13
2022-11-20T09:49:34.863Z,8.65
2022-11-20T09:52:48.549Z,9.85
2022-11-20T09:55:53.212Z,11.55
2022-11-20T09:59:00.412Z,12.52
2022-11-20T10:02:08.564Z,10.30
2022-11-20T10:05:41.107Z,12.55
2022-11-20T10:08:56.779Z,11.35
2022-11-20T10:12:45.568Z,14.68
2022-11-20T10:16:01.460Z,17.10
2022-11-20T10:19:23.356Z,19.55
2022-11-20T10:22:41.979Z,15.90
2022-11-20T10:26:05.138Z,16.23
2022-11-20T10:29:17.285Z,9.85
2022-11-20T10:32:30.071Z,14.35
2022-11-20T10:35:37.284Z,21.95
2022-11-20T10:39:06.253Z,18.15
2022-11-20T10:42:31.398Z,28.17
2022-11-20T10:45:42.382Z,27.20
2022-11-20T10:48:47.680Z,22.35
2022-11-20T10:52:24.108Z,28.13
2022-11-20T10:55:46.857Z,34.00
2022-11-20T10:59:03.378Z,41.53
2022-11-20T11:02:32.723Z,44.58
2022-11-20T11:06:04.269Z,45.78
2022-11-20T11:09:21.904Z,28.33
2022-11-20T11:12:30.105Z,15.02
2022-11-20T11:15:42.083Z,5.82
2022-11-20T11:18:45.130Z,8.57
2022-11-20T11:21:58.160Z,16.60
2022-11-20T11:25:01.909Z,23.15
2022-11-20T11:28:25.745Z,21.20
2022-11-20T11:31:31.566Z,26.35
2022-11-20T11:34:35.806Z,27.02
2022-11-20T11:37:41.241Z,28.88
2022-11-20T11:40:45.793Z,25.42
2022-11-20T11:44:17.190Z,28.20
2022-11-20T11:47:32.472Z,25.73
2022-11-20T11:50:35.858Z,27.02
2022-11-20T11:53:44.444Z,26.80
2022-11-20T11:56:48.451Z,26.42
2022-11-20T12:00:12.367Z,26.50
2022-11-20T12:03:26.319Z,22.77
2022-11-20T12:06:31.447Z,26.77
2022-11-20T12:09:40.899Z,23.40
2022-11-20T12:13:00.796Z,23.02
2022-11-20T12:16:06.049Z,24.20
2022-11-20T12:19:14.957Z,21.27
2022-11-20T12:22:42.364Z,19.13
2022-11-20T12:25:51.726Z,17.77
2022-11-20T12:29:17.211Z,26.40
2022-11-20T12:32:44.701Z,23.90
2022-11-20T12:36:30.535Z,36.05
2022-11-20T12:39:59.819Z,46.50
2022-11-20T12:43:42.362Z,32.33
2022-11-20T12:46:50.242Z,39.65
2022-11-20T12:50:19.702Z,30.20
2022-11-20T12:53:41.968Z,24.23
2022-11-20T12:57:17.499Z,22.88
2022-11-20T13:00:22.931Z,20.50
2022-11-20T13:03:50.784Z,23.45
2022-11-20T13:06:54.029Z,24.73
2022-11-20T13:09:58.371Z,34.50
2022-11-20T13:13:40.285Z,32.30
2022-11-20T13:17:10.886Z,33.60
2022-11-20T13:20:18.450Z,32.75
2022-11-20T13:23:28.237Z,52.92
2022-11-20T13:26:33.493Z,39.85
2022-11-20T13:29:39.105Z,31.48
2022-11-20T13:32:57.515Z,36.92
2022-11-20T13:36:22.782Z,45.33
2022-11-20T13:39:28.845Z,47.85
2022-11-20T13:42:32.569Z,38.60
2022-11-20T13:45:36.061Z,44.53
2022-11-20T13:48:45.273Z,59.40
2022-11-20T13:51:57.268Z,61.58
2022-11-20T13:55:03.861Z,69.53
2022-11-20T13:58:31.326Z,64.28
2022-11-20T14:01:36.893Z,50.15
2022-11-20T14:04:53.509Z,39.53
2022-11-20T14:08:00.072Z,46.95
2022-11-20T14:11:26.405Z,36.95
2022-11-20T14:14:32.920Z,34.50
2022-11-20T14:17:40.702Z,30.73
2022-11-20T14:20:46.947Z,33.40
2022-11-20T14:23:55.671Z,43.95
2022-11-20T14:27:00.924Z,40.13
2022-11-20T14:30:06.153Z,37.10
2022-11-20T14:33:14.646Z,38.42
2022-11-20T14:36:24.023Z,37.88
2022-11-20T14:39:34.112Z,31.65
2022-11-20T14:42:39.549Z,36.58
2022-11-20T14:45:43.654Z,45.58
2022-11-20T14:48:49.890Z,68.85
2022-11-20T14:52:27.175Z,81.13
2022-11-20T14:55:38.832Z,81.38
2022-11-20T14:58:42.466Z,86.95
2022-11-20T15:01:58.535Z,88.47
2022-11-20T15:05:04.887Z,78.78
2022-11-20T15:08:12.122Z,63.87
2022-11-20T15:11:22.126Z,46.13
2022-11-20T15:14:27.324Z,60.78
2022-11-20T15:17:32.569Z,54.20
2022-11-20T15:20:38.074Z,86.88
2022-11-20T15:23:42.236Z,106.93
2022-11-20T15:26:46.116Z,117.95
2022-11-20T15:29:50.129Z,128.88
2022-11-20T15:32:53.618Z,105.60
2022-11-20T15:35:57.016Z,121.18
2022-11-20T15:39:00.793Z,116.00
2022-11-20T15:42:04.191Z,120.30
2022-11-20T15:45:08.511Z,105.07
2022-11-20T15:48:28.960Z,86.45
2022-11-20T15:51:35.905Z,65.72
2022-11-20T15:54:45.133Z,74.57
2022-11-20T15:57:52.372Z,90.50
2022-11-20T16:00:58.496Z,120.03
2022-11-20T16:04:04.382Z,124.10
2022-11-20T16:07:11.365Z,112.45
2022-11-20T16:13:40.558Z,85.45
2022-11-20T16:16:47.946Z,81.22
2022-11-20T16:19:57.342Z,71.25
2022-11-20T16:23:04.785Z,77.47
2022-11-20T16:26:21.602Z,90.35
2022-11-20T16:29:30.740Z,73.95
2022-11-20T16:32:42.424Z,90.30
2022-11-20T16:35:50.944Z,71.63
2022-11-20T16:39:04.904Z,72.93
2022-11-20T16:42:19.014Z,60.13
2022-11-20T16:45:33.727Z,67.63
2022-11-20T16:48:42.230Z,54.40
2022-11-20T16:51:52.498Z,51.25
2022-11-20T16:55:02.038Z,80.55
2022-11-20T16:58:09.630Z,77.38
2022-11-20T17:01:17.702Z,103.85
2022-11-20T17:04:25.483Z,108.18
2022-11-20T17:07:31.538Z,106.72
2022-11-20T17:10:39.375Z,68.97
2022-11-20T17:13:43.566Z,81.40
2022-11-20T17:16:48.020Z,88.90
2022-11-20T17:19:52.358Z,55.45
2022-11-20T17:22:56.999Z,71.78
2022-11-20T17:26:10.729Z,62.95
2022-11-20T17:29:20.498Z,78.13
2022-11-20T17:32:27.988Z,71.25
2022-11-20T17:35:41.531Z,90.10
2022-11-20T17:38:54.273Z,89.47
2022-11-20T17:42:21.504Z,86.28
2022-11-20T17:45:29.830Z,89.05
2022-11-20T17:48:39.470Z,73.38
2022-11-20T17:51:48.799Z,78.53
2022-11-20T17:55:01.329Z,70.47
2022-11-20T17:58:12.509Z,39.50
2022-11-20T18:01:22.881Z,55.95
2022-11-20T18:04:34.262Z,57.47
2022-11-20T18:07:44.292Z,58.75
2022-11-20T18:10:53.027Z,62.80
2022-11-20T18:14:20.369Z,54.47
2022-11-20T18:17:27.954Z,48.83
2022-11-20T18:20:39.750Z,49.28
2022-11-20T18:23:48.720Z,58.42
2022-11-20T18:26:57.345Z,64.03
2022-11-20T18:30:08.517Z,58.13
2022-11-20T18:33:26.965Z,48.13
2022-11-20T18:36:37.640Z,39.92
2022-11-20T18:39:46.379Z,46.08
2022-11-20T18:43:11.178Z,44.65
2022-11-20T18:46:22.973Z,46.22
2022-11-20T18:49:34.054Z,41.72
2022-11-20T18:52:50.346Z,47.25
2022-11-20T18:55:57.946Z,47.72
2022-11-20T18:59:09.138Z,56.60
2022-11-20T19:02:23.489Z,49.78
2022-11-20T19:05:32.721Z,36.92
2022-11-20T19:08:39.949Z,32.30
2022-11-20T19:11:49.041Z,40.88
2022-11-20T19:14:58.396Z,56.42
2022-11-20T19:18:10.081Z,54.33
2022-11-20T19:21:23.517Z,41.38
2022-11-20T19:24:33.982Z,42.25
2022-11-20T19:27:45.058Z,44.42
2022-11-20T19:30:56.960Z,40.92
2022-11-20T19:34:07.842Z,38.85
2022-11-20T19:37:16.459Z,41.83
2022-11-20T19:40:24.563Z,36.17
2022-11-20T19:43:34.312Z,42.15
2022-11-20T19:46:42.242Z,41.10
2022-11-20T19:49:49.986Z,37.92
2022-11-20T19:52:59.768Z,33.45
2022-11-20T19:56:09.210Z,32.35
2022-11-20T19:59:21.364Z,28.77
2022-11-20T20:02:34.775Z,35.08
2022-11-20T20:05:46.346Z,28.58
2022-11-20T20:09:15.554Z,25.10
2022-11-20T20:12:24.991Z,23.52
2022-11-20T20:15:32.493Z,20.58
2022-11-20T20:18:43.561Z,26.13
2022-11-20T20:21:54.242Z,23.40
2022-11-20T20:25:02.855Z,22.83
2022-11-20T20:28:15.685Z,19.10
2022-11-20T20:31:28.554Z,25.58
2022-11-20T20:34:39.161Z,29.20
2022-11-20T20:37:47.178Z,19.23
2022-11-20T20:40:55.061Z,17.67
2022-11-20T20:44:20.301Z,18.42
2022-11-20T20:47:28.201Z,20.48
2022-11-20T20:50:36.713Z,23.73
2022-11-20T20:53:48.317Z,23.15
2022-11-20T20:56:58.270Z,30.80
2022-11-20T21:00:07.295Z,21.88
2022-11-20T21:03:16.744Z,15.45
2022-11-20T21:06:27.824Z,21.73
2022-11-20T21:09:37.869Z,39.70
2022-11-20T21:12:49.872Z,52.58
2022-11-20T21:16:00.240Z,44.35
2022-11-20T21:19:08.761Z,46.88
2022-11-20T21:22:16.773Z,44.28
2022-11-20T21:25:26.507Z,36.42
2022-11-20T21:28:35.131Z,26.92
2022-11-20T21:31:42.941Z,25.02
2022-11-20T21:34:50.541Z,21.42
2022-11-20T21:37:57.824Z,25.95
2022-11-20T21:41:09.418Z,27.35
2022-11-20T21:44:35.348Z,29.00
2022-11-20T21:47:43.989Z,24.88
2022-11-20T21:50:54.858Z,23.33
2022-11-20T21:54:04.600Z,24.23
2022-11-20T21:57:14.723Z,23.80
2022-11-20T22:00:24.196Z,20.23
2022-11-20T22:03:33.745Z,16.73
2022-11-20T22:06:42.989Z,27.98
2022-11-20T22:09:53.036Z,24.00
2022-11-20T22:13:39.963Z,22.70
2022-11-20T22:16:58.191Z,22.10
2022-11-20T22:20:11.966Z,23.75
2022-11-20T22:23:24.346Z,25.90
2022-11-20T22:26:40.219Z,25.13
2022-11-20T22:29:47.441Z,22.45
2022-11-20T22:32:59.428Z,26.27
2022-11-20T22:36:12.720Z,26.23
2022-11-20T22:39:26.825Z,29.02
2022-11-20T22:42:41.277Z,26.77
2022-11-20T22:45:55.896Z,30.80
2022-11-20T22:49:06.224Z,24.90
2022-11-20T22:52:15.987Z,24.90
2022-11-20T22:55:22.774Z,27.48
2022-11-20T22:58:34.109Z,27.48
2022-11-20T23:01:41.495Z,24.58
2022-11-20T23:04:50.125Z,25.92
2022-11-20T23:07:55.181Z,25.55
2022-11-20T23:11:10.305Z,21.27
2022-11-20T23:14:21.526Z,22.17
2022-11-20T23:17:33.956Z,21.27
2022-11-20T23:20:40.924Z,15.75
2022-11-20T23:23:50.455Z,21.60
2022-11-20T23:26:54.958Z,20.27
2022-11-20T23:30:00.317Z,30.90
2022-11-20T23:33:05.762Z,35.72
2022-11-20T23:36:11.230Z,31.92
2022-11-20T23:39:18.328Z,44.92
2022-11-20T23:42:23.451Z,46.72
2022-11-20T23:45:30.661Z,37.67
2022-11-20T23:48:41.323Z,39.92
2022-11-20T23:51:49.117Z,33.22
2022-11-20T23:54:56.617Z,36.83
2022-11-20T23:58:02.884Z,30.02
